sensor_id;sensor_type;location;lat;lon;timestamp;pressure;altitude;pressure_sealevel;temperature;humidity
10718;BME280;13513;42.700;23.124;2023-09-30T00:01:27;93397.40;;;15.22;72.14
10718;BME280;13513;42.700;23.124;2023-09-30T00:03:55;93391.77;;;15.09;73.14
10718;BME280;13513;42.700;23.124;2023-09-30T00:06:22;93383.83;;;15.31;71.05
10718;BME280;13513;42.700;23.124;2023-09-30T00:08:50;93382.76;;;15.30;70.95
10718;BME280;13513;42.700;23.124;2023-09-30T00:11:18;93376.87;;;15.13;72.57
10718;BME280;13513;42.700;23.124;2023-09-30T00:13:45;93375.58;;;15.23;71.50
10718;BME280;13513;42.700;23.124;2023-09-30T00:16:13;93383.27;;;15.22;71.78
10718;BME280;13513;42.700;23.124;2023-09-30T00:18:40;93380.36;;;15.26;71.58
10718;BME280;13513;42.700;23.124;2023-09-30T00:21:07;93384.09;;;15.25;71.57
10718;BME280;13513;42.700;23.124;2023-09-30T00:23:35;93384.09;;;15.27;71.83
10718;BME280;13513;42.700;23.124;2023-09-30T00:26:02;93382.50;;;15.26;71.41
10718;BME280;13513;42.700;23.124;2023-09-30T00:28:31;93382.23;;;15.33;70.73
10718;BME280;13513;42.700;23.124;2023-09-30T00:30:58;93376.91;;;15.28;70.98
10718;BME280;13513;42.700;23.124;2023-09-30T00:33:26;93379.06;;;15.33;71.16
10718;BME280;13513;42.700;23.124;2023-09-30T00:35:54;93372.95;;;15.35;71.37
10718;BME280;13513;42.700;23.124;2023-09-30T00:38:21;93371.59;;;15.30;71.10
10718;BME280;13513;42.700;23.124;2023-09-30T00:40:50;93377.98;;;15.27;71.69
10718;BME280;13513;42.700;23.124;2023-09-30T00:43:21;93372.89;;;15.20;71.32
10718;BME280;13513;42.700;23.124;2023-09-30T00:46:02;93369.95;;;15.09;72.96
10718;BME280;13513;42.700;23.124;2023-09-30T00:48:33;93371.03;;;15.13;72.32
10718;BME280;13513;42.700;23.124;2023-09-30T00:51:01;93374.46;;;15.01;72.95
10718;BME280;13513;42.700;23.124;2023-09-30T00:53:30;93373.66;;;15.06;73.74
10718;BME280;13513;42.700;23.124;2023-09-30T00:55:59;93374.47;;;15.06;72.84
10718;BME280;13513;42.700;23.124;2023-09-30T00:58:27;93372.11;;;15.20;72.69
10718;BME280;13513;42.700;23.124;2023-09-30T01:00:57;93369.96;;;15.14;72.25
10718;BME280;13513;42.700;23.124;2023-09-30T01:03:26;93373.95;;;15.19;72.19
10718;BME280;13513;42.700;23.124;2023-09-30T01:05:54;93370.52;;;15.24;72.30
10718;BME280;13513;42.700;23.124;2023-09-30T01:08:22;93375.06;;;15.28;71.87
10718;BME280;13513;42.700;23.124;2023-09-30T01:10:49;93371.06;;;15.31;70.94
10718;BME280;13513;42.700;23.124;2023-09-30T01:13:17;93372.92;;;15.30;70.89
10718;BME280;13513;42.700;23.124;2023-09-30T01:15:44;93373.47;;;15.32;71.31
10718;BME280;13513;42.700;23.124;2023-09-30T01:18:13;93369.19;;;15.31;71.27
10718;BME280;13513;42.700;23.124;2023-09-30T01:20:41;93371.30;;;15.24;71.30
10718;BME280;13513;42.700;23.124;2023-09-30T01:23:08;93365.71;;;15.26;71.59
10718;BME280;13513;42.700;23.124;2023-09-30T01:25:38;93361.46;;;15.25;70.73
10718;BME280;13513;42.700;23.124;2023-09-30T01:28:07;93363.02;;;15.08;72.78
10718;BME280;13513;42.700;23.124;2023-09-30T01:30:36;93360.38;;;15.13;72.02
10718;BME280;13513;42.700;23.124;2023-09-30T01:33:04;93363.27;;;15.07;72.24
10718;BME280;13513;42.700;23.124;2023-09-30T01:35:34;93365.37;;;14.95;73.41
10718;BME280;13513;42.700;23.124;2023-09-30T01:38:01;93362.44;;;14.91;73.52
10718;BME280;13513;42.700;23.124;2023-09-30T01:40:29;93371.19;;;14.84;74.51
10718;BME280;13513;42.700;23.124;2023-09-30T01:42:56;93362.18;;;14.90;73.49
10718;BME280;13513;42.700;23.124;2023-09-30T01:45:24;93366.70;;;14.92;73.19
10718;BME280;13513;42.700;23.124;2023-09-30T01:47:51;93366.95;;;14.93;73.52
10718;BME280;13513;42.700;23.124;2023-09-30T01:50:19;93368.84;;;14.93;73.51
10718;BME280;13513;42.700;23.124;2023-09-30T01:52:46;93370.11;;;14.75;75.78
10718;BME280;13513;42.700;23.124;2023-09-30T01:55:14;93358.14;;;14.78;74.78
10718;BME280;13513;42.700;23.124;2023-09-30T01:57:41;93362.95;;;14.86;74.32
10718;BME280;13513;42.700;23.124;2023-09-30T02:00:09;93366.39;;;14.84;74.07
10718;BME280;13513;42.700;23.124;2023-09-30T02:02:36;93362.70;;;14.90;73.71
10718;BME280;13513;42.700;23.124;2023-09-30T02:05:04;93361.11;;;14.91;73.42
10718;BME280;13513;42.700;23.124;2023-09-30T02:07:33;93364.28;;;14.81;74.93
10718;BME280;13513;42.700;23.124;2023-09-30T02:10:02;93353.89;;;14.82;74.80
10718;BME280;13513;42.700;23.124;2023-09-30T02:12:30;93353.09;;;14.84;73.06
10718;BME280;13513;42.700;23.124;2023-09-30T02:14:59;93353.39;;;14.90;72.92
10718;BME280;13513;42.700;23.124;2023-09-30T02:17:26;93351.24;;;14.87;73.01
10718;BME280;13513;42.700;23.124;2023-09-30T02:19:53;93349.66;;;14.88;72.64
10718;BME280;13513;42.700;23.124;2023-09-30T02:22:21;93352.06;;;14.90;72.18
10718;BME280;13513;42.700;23.124;2023-09-30T02:24:49;93351.25;;;14.89;72.43
10718;BME280;13513;42.700;23.124;2023-09-30T02:27:17;93356.56;;;14.87;73.13
10718;BME280;13513;42.700;23.124;2023-09-30T02:29:44;93355.48;;;14.80;73.39
10718;BME280;13513;42.700;23.124;2023-09-30T02:32:12;93360.25;;;14.76;73.06
10718;BME280;13513;42.700;23.124;2023-09-30T02:34:40;93361.58;;;14.76;73.18
10718;BME280;13513;42.700;23.124;2023-09-30T02:37:09;93351.22;;;14.74;72.96
10718;BME280;13513;42.700;23.124;2023-09-30T02:39:37;93359.22;;;14.79;73.12
10718;BME280;13513;42.700;23.124;2023-09-30T02:42:04;93357.06;;;14.74;73.54
10718;BME280;13513;42.700;23.124;2023-09-30T02:44:32;93352.00;;;14.75;72.78
10718;BME280;13513;42.700;23.124;2023-09-30T02:46:59;93357.06;;;14.76;72.60
10718;BME280;13513;42.700;23.124;2023-09-30T02:49:26;93353.63;;;14.81;72.30
10718;BME280;13513;42.700;23.124;2023-09-30T02:51:54;93357.63;;;14.81;72.80
10718;BME280;13513;42.700;23.124;2023-09-30T02:54:21;93355.99;;;14.75;72.76
10718;BME280;13513;42.700;23.124;2023-09-30T02:56:49;93356.80;;;14.75;72.55
10718;BME280;13513;42.700;23.124;2023-09-30T02:59:16;93353.07;;;14.74;72.96
10718;BME280;13513;42.700;23.124;2023-09-30T03:01:45;93353.88;;;14.74;73.31
10718;BME280;13513;42.700;23.124;2023-09-30T03:04:13;93357.58;;;14.73;72.87
10718;BME280;13513;42.700;23.124;2023-09-30T03:06:41;93352.56;;;14.77;72.23
10718;BME280;13513;42.700;23.124;2023-09-30T03:09:08;93361.31;;;14.75;72.06
10718;BME280;13513;42.700;23.124;2023-09-30T03:11:37;93360.80;;;14.75;72.45
10718;BME280;13513;42.700;23.124;2023-09-30T03:14:05;93359.20;;;14.77;72.64
10718;BME280;13513;42.700;23.124;2023-09-30T03:16:34;93353.64;;;14.86;71.62
10718;BME280;13513;42.700;23.124;2023-09-30T03:19:03;93359.73;;;14.81;71.92
10718;BME280;13513;42.700;23.124;2023-09-30T03:21:32;93358.66;;;14.80;72.04
10718;BME280;13513;42.700;23.124;2023-09-30T03:23:59;93354.66;;;14.70;72.24
10718;BME280;13513;42.700;23.124;2023-09-30T03:26:28;93354.92;;;14.73;73.11
10718;BME280;13513;42.700;23.124;2023-09-30T03:28:56;93360.53;;;14.74;72.55
10718;BME280;13513;42.700;23.124;2023-09-30T03:31:23;93358.64;;;14.70;72.41
10718;BME280;13513;42.700;23.124;2023-09-30T03:33:51;93349.83;;;14.59;73.70
10718;BME280;13513;42.700;23.124;2023-09-30T03:36:22;93351.70;;;14.66;73.69
10718;BME280;13513;42.700;23.124;2023-09-30T03:38:54;93354.28;;;14.49;75.04
10718;BME280;13513;42.700;23.124;2023-09-30T03:41:22;93359.67;;;14.66;73.31
10718;BME280;13513;42.700;23.124;2023-09-30T03:43:49;93358.84;;;14.58;73.23
10718;BME280;13513;42.700;23.124;2023-09-30T03:46:17;93356.23;;;14.63;73.18
10718;BME280;13513;42.700;23.124;2023-09-30T03:48:45;93352.75;;;14.58;73.31
10718;BME280;13513;42.700;23.124;2023-09-30T03:51:13;93356.73;;;14.58;74.18
10718;BME280;13513;42.700;23.124;2023-09-30T03:53:41;93352.45;;;14.54;73.42
10718;BME280;13513;42.700;23.124;2023-09-30T03:56:09;93354.07;;;14.55;73.69
10718;BME280;13513;42.700;23.124;2023-09-30T03:58:42;93349.77;;;14.47;73.85
10718;BME280;13513;42.700;23.124;2023-09-30T04:01:11;93345.02;;;14.54;73.56
10718;BME280;13513;42.700;23.124;2023-09-30T04:03:40;93345.27;;;14.52;73.96
10718;BME280;13513;42.700;23.124;2023-09-30T04:06:09;93348.45;;;14.49;74.45
10718;BME280;13513;42.700;23.124;2023-09-30T04:08:37;93344.72;;;14.50;74.08
10718;BME280;13513;42.700;23.124;2023-09-30T04:11:04;93341.80;;;14.49;74.11
10718;BME280;13513;42.700;23.124;2023-09-30T04:13:32;93347.63;;;14.49;74.03
10718;BME280;13513;42.700;23.124;2023-09-30T04:15:59;93347.92;;;14.50;74.04
10718;BME280;13513;42.700;23.124;2023-09-30T04:18:27;93345.02;;;14.51;74.30
10718;BME280;13513;42.700;23.124;2023-09-30T04:20:54;93351.36;;;14.48;74.70
10718;BME280;13513;42.700;23.124;2023-09-30T04:23:22;93345.77;;;14.44;74.62
10718;BME280;13513;42.700;23.124;2023-09-30T04:25:49;93348.70;;;14.50;73.79
10718;BME280;13513;42.700;23.124;2023-09-30T04:28:17;93350.83;;;14.46;75.00
10718;BME280;13513;42.700;23.124;2023-09-30T04:30:47;93353.20;;;14.47;74.69
10718;BME280;13513;42.700;23.124;2023-09-30T04:33:16;93358.83;;;14.53;74.54
10718;BME280;13513;42.700;23.124;2023-09-30T04:35:48;93354.83;;;14.48;75.22
10718;BME280;13513;42.700;23.124;2023-09-30T04:38:16;93359.91;;;14.57;74.45
10718;BME280;13513;42.700;23.124;2023-09-30T04:40:44;93362.63;;;14.65;73.58
10718;BME280;13513;42.700;23.124;2023-09-30T04:43:14;93357.84;;;14.72;73.08
10718;BME280;13513;42.700;23.124;2023-09-30T04:45:41;93363.46;;;14.78;72.99
10718;BME280;13513;42.700;23.124;2023-09-30T04:48:08;93362.66;;;14.80;72.39
10718;BME280;13513;42.700;23.124;2023-09-30T04:50:36;93367.77;;;14.91;72.04
10718;BME280;13513;42.700;23.124;2023-09-30T04:53:04;93369.14;;;15.09;70.83
10718;BME280;13513;42.700;23.124;2023-09-30T04:55:32;93372.36;;;15.23;69.78
10718;BME280;13513;42.700;23.124;2023-09-30T04:57:59;93371.91;;;15.36;69.18
10718;BME280;13513;42.700;23.124;2023-09-30T05:00:26;93366.61;;;15.51;68.51
10718;BME280;13513;42.700;23.124;2023-09-30T05:02:56;93373.81;;;15.78;67.45
10718;BME280;13513;42.700;23.124;2023-09-30T05:05:25;93373.78;;;16.08;65.33
10718;BME280;13513;42.700;23.124;2023-09-30T05:07:52;93376.41;;;16.44;63.36
10718;BME280;13513;42.700;23.124;2023-09-30T05:10:20;93383.56;;;16.66;61.57
10718;BME280;13513;42.700;23.124;2023-09-30T05:12:47;93380.57;;;16.85;61.42
10718;BME280;13513;42.700;23.124;2023-09-30T05:15:18;93383.02;;;17.32;58.12
10718;BME280;13513;42.700;23.124;2023-09-30T05:17:46;93380.84;;;17.44;57.54
10718;BME280;13513;42.700;23.124;2023-09-30T05:20:15;93384.91;;;17.75;55.91
10718;BME280;13513;42.700;23.124;2023-09-30T05:22:44;93384.69;;;18.05;54.98
10718;BME280;13513;42.700;23.124;2023-09-30T05:25:13;93382.30;;;18.32;54.83
10718;BME280;13513;42.700;23.124;2023-09-30T05:27:45;93379.23;;;18.72;53.73
10718;BME280;13513;42.700;23.124;2023-09-30T05:30:14;93386.54;;;19.14;51.63
10718;BME280;13513;42.700;23.124;2023-09-30T05:32:42;93385.70;;;19.39;50.33
10718;BME280;13513;42.700;23.124;2023-09-30T05:35:09;93389.32;;;19.67;49.86
10718;BME280;13513;42.700;23.124;2023-09-30T05:37:40;93394.96;;;20.03;49.34
10718;BME280;13513;42.700;23.124;2023-09-30T05:40:09;93390.92;;;20.37;48.64
10718;BME280;13513;42.700;23.124;2023-09-30T05:42:38;93395.55;;;20.50;48.22
10718;BME280;13513;42.700;23.124;2023-09-30T05:45:06;93394.63;;;20.57;47.33
10718;BME280;13513;42.700;23.124;2023-09-30T05:47:35;93399.37;;;20.63;47.35
10718;BME280;13513;42.700;23.124;2023-09-30T05:50:04;93402.84;;;20.47;47.46
10718;BME280;13513;42.700;23.124;2023-09-30T05:52:33;93404.14;;;20.79;46.72
10718;BME280;13513;42.700;23.124;2023-09-30T05:55:02;93407.73;;;20.75;46.82
10718;BME280;13513;42.700;23.124;2023-09-30T05:57:29;93400.14;;;21.09;46.57
10718;BME280;13513;42.700;23.124;2023-09-30T05:59:57;93400.78;;;21.68;45.52
10718;BME280;13513;42.700;23.124;2023-09-30T06:02:24;93395.90;;;21.95;44.33
10718;BME280;13513;42.700;23.124;2023-09-30T06:04:51;93400.88;;;22.23;44.68
10718;BME280;13513;42.700;23.124;2023-09-30T06:07:20;93399.70;;;22.16;44.09
10718;BME280;13513;42.700;23.124;2023-09-30T06:09:47;93405.36;;;22.50;42.40
10718;BME280;13513;42.700;23.124;2023-09-30T06:12:16;93411.62;;;22.89;40.77
10718;BME280;13513;42.700;23.124;2023-09-30T06:14:43;93413.14;;;23.43;39.07
10718;BME280;13513;42.700;23.124;2023-09-30T06:17:11;93413.14;;;23.43;39.16
10718;BME280;13513;42.700;23.124;2023-09-30T06:19:38;93413.72;;;23.51;39.98
10718;BME280;13513;42.700;23.124;2023-09-30T06:22:06;93418.58;;;22.82;39.75
10718;BME280;13513;42.700;23.124;2023-09-30T06:24:33;93414.48;;;22.93;40.60
10718;BME280;13513;42.700;23.124;2023-09-30T06:27:01;93417.64;;;23.17;39.56
10718;BME280;13513;42.700;23.124;2023-09-30T06:29:29;93419.17;;;23.68;37.54
10718;BME280;13513;42.700;23.124;2023-09-30T06:31:57;93425.43;;;23.38;37.92
10718;BME280;13513;42.700;23.124;2023-09-30T06:34:24;93422.97;;;22.78;38.76
10718;BME280;13513;42.700;23.124;2023-09-30T06:36:51;93426.90;;;23.53;38.30
10718;BME280;13513;42.700;23.124;2023-09-30T06:39:20;93429.02;;;23.92;37.44
10718;BME280;13513;42.700;23.124;2023-09-30T06:41:47;93429.61;;;24.43;36.15
10718;BME280;13513;42.700;23.124;2023-09-30T06:44:15;93428.66;;;25.36;35.67
10718;BME280;13513;42.700;23.124;2023-09-30T06:46:42;93428.16;;;26.29;33.66
10718;BME280;13513;42.700;23.124;2023-09-30T06:49:10;93425.78;;;27.08;32.61
10718;BME280;13513;42.700;23.124;2023-09-30T06:51:37;93431.31;;;27.56;31.46
10718;BME280;13513;42.700;23.124;2023-09-30T06:54:05;93428.38;;;27.79;32.09
10718;BME280;13513;42.700;23.124;2023-09-30T06:56:36;93436.41;;;27.81;30.65
10718;BME280;13513;42.700;23.124;2023-09-30T06:59:03;93441.27;;;27.34;31.37
10718;BME280;13513;42.700;23.124;2023-09-30T07:01:32;93443.80;;;26.86;30.83
10718;BME280;13513;42.700;23.124;2023-09-30T07:04:00;93444.95;;;26.08;32.65
10718;BME280;13513;42.700;23.124;2023-09-30T07:06:27;93446.92;;;24.76;34.70
10718;BME280;13513;42.700;23.124;2023-09-30T07:08:55;93449.62;;;24.50;34.63
10718;BME280;13513;42.700;23.124;2023-09-30T07:11:29;93449.73;;;25.13;33.97
10718;BME280;13513;42.700;23.124;2023-09-30T07:13:58;93453.26;;;25.51;33.04
10718;BME280;13513;42.700;23.124;2023-09-30T07:16:26;93444.84;;;26.25;33.04
10718;BME280;13513;42.700;23.124;2023-09-30T07:18:54;93445.91;;;26.74;31.15
10718;BME280;13513;42.700;23.124;2023-09-30T07:21:21;93442.40;;;27.06;31.29
10718;BME280;13513;42.700;23.124;2023-09-30T07:23:49;93448.24;;;27.29;31.19
10718;BME280;13513;42.700;23.124;2023-09-30T07:26:16;93453.16;;;27.47;30.47
10718;BME280;13513;42.700;23.124;2023-09-30T07:28:44;93452.17;;;28.06;29.91
10718;BME280;13513;42.700;23.124;2023-09-30T07:31:11;93451.37;;;27.63;29.94
10718;BME280;13513;42.700;23.124;2023-09-30T07:33:39;93461.68;;;28.24;29.13
10718;BME280;13513;42.700;23.124;2023-09-30T07:36:07;93452.86;;;28.78;29.12
10718;BME280;13513;42.700;23.124;2023-09-30T07:38:35;93457.03;;;29.15;28.59
10718;BME280;13513;42.700;23.124;2023-09-30T07:41:02;93456.34;;;29.18;29.11
10718;BME280;13513;42.700;23.124;2023-09-30T07:43:31;93463.79;;;29.70;27.88
10718;BME280;13513;42.700;23.124;2023-09-30T07:45:58;93454.82;;;30.76;27.94
10718;BME280;13513;42.700;23.124;2023-09-30T07:48:27;93459.05;;;32.04;26.43
10718;BME280;13513;42.700;23.124;2023-09-30T07:50:56;93457.50;;;33.44;24.98
10718;BME280;13513;42.700;23.124;2023-09-30T07:53:23;93461.84;;;33.65;23.59
10718;BME280;13513;42.700;23.124;2023-09-30T07:55:50;93461.45;;;32.71;25.02
10718;BME280;13513;42.700;23.124;2023-09-30T07:58:18;93457.66;;;31.72;25.87
10718;BME280;13513;42.700;23.124;2023-09-30T08:00:46;93464.06;;;32.90;24.82
10718;BME280;13513;42.700;23.124;2023-09-30T08:03:14;93456.40;;;31.15;26.39
10718;BME280;13513;42.700;23.124;2023-09-30T08:05:42;93460.64;;;30.09;27.96
10718;BME280;13513;42.700;23.124;2023-09-30T08:08:10;93461.66;;;30.61;27.02
10718;BME280;13513;42.700;23.124;2023-09-30T08:10:37;93455.45;;;31.78;26.37
10718;BME280;13513;42.700;23.124;2023-09-30T08:13:05;93455.17;;;31.83;25.31
10718;BME280;13513;42.700;23.124;2023-09-30T08:15:32;93456.69;;;31.80;25.34
10718;BME280;13513;42.700;23.124;2023-09-30T08:18:00;93447.10;;;32.38;25.63
10718;BME280;13513;42.700;23.124;2023-09-30T08:20:29;93451.66;;;32.57;24.55
10718;BME280;13513;42.700;23.124;2023-09-30T08:22:56;93456.87;;;34.18;22.46
10718;BME280;13513;42.700;23.124;2023-09-30T08:25:24;93460.47;;;34.79;20.97
10718;BME280;13513;42.700;23.124;2023-09-30T08:27:52;93462.36;;;34.99;21.48
10718;BME280;13513;42.700;23.124;2023-09-30T08:30:20;93465.59;;;34.81;20.52
10718;BME280;13513;42.700;23.124;2023-09-30T08:32:48;93457.42;;;36.68;20.04
10718;BME280;13513;42.700;23.124;2023-09-30T08:35:16;93455.09;;;35.38;20.40
10718;BME280;13513;42.700;23.124;2023-09-30T08:37:43;93458.38;;;35.85;19.82
10718;BME280;13513;42.700;23.124;2023-09-30T08:40:11;93451.44;;;35.13;20.04
10718;BME280;13513;42.700;23.124;2023-09-30T08:42:39;93456.36;;;34.05;20.61
10718;BME280;13513;42.700;23.124;2023-09-30T08:45:10;93448.72;;;32.43;22.54
10718;BME280;13513;42.700;23.124;2023-09-30T08:47:38;93450.08;;;31.02;23.65
10718;BME280;13513;42.700;23.124;2023-09-30T08:50:08;93447.81;;;30.69;24.25
10718;BME280;13513;42.700;23.124;2023-09-30T08:52:41;93446.41;;;31.32;24.66
10718;BME280;13513;42.700;23.124;2023-09-30T08:55:11;93452.28;;;31.76;22.71
10718;BME280;13513;42.700;23.124;2023-09-30T08:57:42;93452.08;;;31.97;22.85
10718;BME280;13513;42.700;23.124;2023-09-30T09:00:12;93452.55;;;33.57;21.76
10718;BME280;13513;42.700;23.124;2023-09-30T09:02:41;93447.41;;;33.88;21.40
10718;BME280;13513;42.700;23.124;2023-09-30T09:05:09;93442.91;;;32.22;22.46
10718;BME280;13513;42.700;23.124;2023-09-30T09:07:37;93444.25;;;32.31;22.65
10718;BME280;13513;42.700;23.124;2023-09-30T09:10:10;93444.45;;;32.32;21.55
10718;BME280;13513;42.700;23.124;2023-09-30T09:12:40;93445.03;;;30.94;23.54
10718;BME280;13513;42.700;23.124;2023-09-30T09:15:19;93439.02;;;31.87;22.21
10718;BME280;13513;42.700;23.124;2023-09-30T09:17:42;93437.64;;;31.14;23.38
10718;BME280;13513;42.700;23.124;2023-09-30T09:20:11;93433.58;;;31.78;22.77
10718;BME280;13513;42.700;23.124;2023-09-30T09:22:44;93431.89;;;32.18;22.81
10718;BME280;13513;42.700;23.124;2023-09-30T09:25:11;93437.58;;;33.14;21.92
10718;BME280;13513;42.700;23.124;2023-09-30T09:27:39;93432.37;;;32.24;23.68
10718;BME280;13513;42.700;23.124;2023-09-30T09:30:21;93430.34;;;30.64;24.15
10718;BME280;13513;42.700;23.124;2023-09-30T09:33:05;93435.05;;;29.98;23.99
10718;BME280;13513;42.700;23.124;2023-09-30T09:35:35;93428.53;;;28.91;25.39
10718;BME280;13513;42.700;23.124;2023-09-30T09:38:04;93434.80;;;29.72;25.49
10718;BME280;13513;42.700;23.124;2023-09-30T09:40:38;93421.42;;;30.48;24.07
10718;BME280;13513;42.700;23.124;2023-09-30T09:43:07;93429.33;;;29.56;24.80
10718;BME280;13513;42.700;23.124;2023-09-30T09:45:36;93429.48;;;28.83;25.78
10718;BME280;13513;42.700;23.124;2023-09-30T09:48:04;93419.64;;;29.28;25.47
10718;BME280;13513;42.700;23.124;2023-09-30T09:50:33;93420.38;;;28.91;25.76
10718;BME280;13513;42.700;23.124;2023-09-30T09:53:05;93429.88;;;27.20;28.33
10718;BME280;13513;42.700;23.124;2023-09-30T09:55:33;93414.38;;;28.86;25.92
10718;BME280;13513;42.700;23.124;2023-09-30T09:58:02;93407.63;;;30.41;24.56
10718;BME280;13513;42.700;23.124;2023-09-30T10:00:31;93411.84;;;30.04;25.41
10718;BME280;13513;42.700;23.124;2023-09-30T10:03:01;93415.83;;;29.23;25.32
10718;BME280;13513;42.700;23.124;2023-09-30T10:05:29;93412.66;;;29.52;25.70
10718;BME280;13513;42.700;23.124;2023-09-30T10:08:05;93400.23;;;28.80;26.31
10718;BME280;13513;42.700;23.124;2023-09-30T10:10:37;93396.53;;;28.27;27.18
10718;BME280;13513;42.700;23.124;2023-09-30T10:13:05;93394.94;;;26.74;29.22
10718;BME280;13513;42.700;23.124;2023-09-30T10:15:34;93401.37;;;25.26;30.53
10718;BME280;13513;42.700;23.124;2023-09-30T10:18:09;93402.44;;;25.57;30.27
10718;BME280;13513;42.700;23.124;2023-09-30T10:20:39;93390.16;;;25.59;30.17
10718;BME280;13513;42.700;23.124;2023-09-30T10:23:26;93401.05;;;25.51;31.50
10718;BME280;13513;42.700;23.124;2023-09-30T10:26:15;93388.62;;;26.08;31.08
10718;BME280;13513;42.700;23.124;2023-09-30T10:31:17;93376.73;;;25.92;29.99
10718;BME280;13513;42.700;23.124;2023-09-30T10:36:37;93384.81;;;25.51;31.40
10718;BME280;13513;42.700;23.124;2023-09-30T10:39:10;93381.55;;;25.66;29.65
10718;BME280;13513;42.700;23.124;2023-09-30T10:47:00;93362.23;;;28.23;26.96
10718;BME280;13513;42.700;23.124;2023-09-30T10:51:59;93354.66;;;28.77;25.47
10718;BME280;13513;42.700;23.124;2023-09-30T10:54:29;93353.87;;;28.22;25.60
10718;BME280;13513;42.700;23.124;2023-09-30T10:56:58;93346.61;;;28.14;26.08
10718;BME280;13513;42.700;23.124;2023-09-30T10:59:27;93346.18;;;28.12;26.98
10718;BME280;13513;42.700;23.124;2023-09-30T11:02:00;93359.92;;;28.49;25.98
10718;BME280;13513;42.700;23.124;2023-09-30T11:04:28;93351.95;;;29.36;25.47
10718;BME280;13513;42.700;23.124;2023-09-30T11:06:55;93333.44;;;31.70;23.35
10718;BME280;13513;42.700;23.124;2023-09-30T11:09:23;93339.42;;;30.60;24.14
10718;BME280;13513;42.700;23.124;2023-09-30T11:11:52;93341.08;;;29.20;24.33
10718;BME280;13513;42.700;23.124;2023-09-30T11:14:28;93341.41;;;29.65;23.68
10718;BME280;13513;42.700;23.124;2023-09-30T11:17:00;93344.11;;;28.60;24.76
10718;BME280;13513;42.700;23.124;2023-09-30T11:19:37;93337.00;;;28.16;24.88
10718;BME280;13513;42.700;23.124;2023-09-30T11:22:05;93332.34;;;28.23;26.23
10718;BME280;13513;42.700;23.124;2023-09-30T11:24:37;93336.69;;;28.73;25.71
10718;BME280;13513;42.700;23.124;2023-09-30T11:27:04;93328.38;;;27.57;26.21
10718;BME280;13513;42.700;23.124;2023-09-30T11:29:32;93323.49;;;27.38;26.38
10718;BME280;13513;42.700;23.124;2023-09-30T11:31:59;93329.41;;;28.10;25.99
10718;BME280;13513;42.700;23.124;2023-09-30T11:34:35;93325.24;;;28.06;26.32
10718;BME280;13513;42.700;23.124;2023-09-30T11:37:05;93330.42;;;28.57;24.75
10718;BME280;13513;42.700;23.124;2023-09-30T11:39:32;93322.34;;;28.82;25.43
10718;BME280;13513;42.700;23.124;2023-09-30T11:42:00;93324.78;;;28.50;25.19
10718;BME280;13513;42.700;23.124;2023-09-30T11:44:27;93325.84;;;28.27;25.29
10718;BME280;13513;42.700;23.124;2023-09-30T11:46:59;93323.68;;;28.88;24.88
10718;BME280;13513;42.700;23.124;2023-09-30T11:49:35;93314.80;;;28.20;25.59
10718;BME280;13513;42.700;23.124;2023-09-30T11:52:02;93311.27;;;27.56;26.03
10718;BME280;13513;42.700;23.124;2023-09-30T11:54:35;93304.34;;;26.93;27.18
10718;BME280;13513;42.700;23.124;2023-09-30T11:57:07;93318.69;;;26.22;27.98
10718;BME280;13513;42.700;23.124;2023-09-30T11:59:40;93302.11;;;25.62;28.42
10718;BME280;13513;42.700;23.124;2023-09-30T12:02:11;93304.97;;;25.51;29.69
10718;BME280;13513;42.700;23.124;2023-09-30T12:04:42;93304.81;;;25.18;29.14
10718;BME280;13513;42.700;23.124;2023-09-30T12:07:09;93299.46;;;24.87;30.38
10718;BME280;13513;42.700;23.124;2023-09-30T12:09:37;93301.36;;;24.86;30.80
10718;BME280;13513;42.700;23.124;2023-09-30T12:12:07;93301.27;;;25.12;30.77
10718;BME280;13513;42.700;23.124;2023-09-30T12:14:35;93300.53;;;25.17;30.08
10718;BME280;13513;42.700;23.124;2023-09-30T12:17:03;93289.68;;;25.40;29.97
10718;BME280;13513;42.700;23.124;2023-09-30T12:19:30;93295.17;;;25.52;29.53
10718;BME280;13513;42.700;23.124;2023-09-30T12:21:58;93288.54;;;25.76;29.29
10718;BME280;13513;42.700;23.124;2023-09-30T12:24:26;93287.77;;;25.61;28.04
10718;BME280;13513;42.700;23.124;2023-09-30T12:26:53;93284.64;;;25.65;28.86
10718;BME280;13513;42.700;23.124;2023-09-30T12:29:22;93287.63;;;25.37;29.29
10718;BME280;13513;42.700;23.124;2023-09-30T12:31:51;93278.53;;;25.19;29.44
10718;BME280;13513;42.700;23.124;2023-09-30T12:34:19;93274.05;;;25.23;29.69
10718;BME280;13513;42.700;23.124;2023-09-30T12:36:48;93275.95;;;25.45;29.07
10718;BME280;13513;42.700;23.124;2023-09-30T12:39:16;93262.75;;;25.64;28.96
10718;BME280;13513;42.700;23.124;2023-09-30T12:41:44;93274.41;;;25.71;28.59
10718;BME280;13513;42.700;23.124;2023-09-30T12:44:12;93276.70;;;25.40;28.71
10718;BME280;13513;42.700;23.124;2023-09-30T12:46:39;93277.50;;;24.74;29.82
10718;BME280;13513;42.700;23.124;2023-09-30T12:49:07;93274.61;;;24.47;30.34
10718;BME280;13513;42.700;23.124;2023-09-30T12:51:36;93273.72;;;24.58;30.13
10718;BME280;13513;42.700;23.124;2023-09-30T12:54:03;93271.91;;;24.79;29.55
10718;BME280;13513;42.700;23.124;2023-09-30T12:56:31;93263.95;;;25.11;29.22
10718;BME280;13513;42.700;23.124;2023-09-30T12:58:59;93257.09;;;25.28;28.73
10718;BME280;13513;42.700;23.124;2023-09-30T13:01:27;93249.34;;;25.68;29.00
10718;BME280;13513;42.700;23.124;2023-09-30T13:03:55;93251.45;;;25.62;28.81
10718;BME280;13513;42.700;23.124;2023-09-30T13:06:22;93254.86;;;25.65;28.65
10718;BME280;13513;42.700;23.124;2023-09-30T13:08:49;93255.41;;;26.06;27.89
10718;BME280;13513;42.700;23.124;2023-09-30T13:11:17;93252.58;;;25.61;28.55